sensor_id;sensor_type;location;lat;lon;timestamp;pressure;altitude;pressure_sealevel;temperature;humidity
76156;BME280;64906;51.290;7.348;2023-05-23T00:02:20;98751.06;;;21.42;48.39
76156;BME280;64906;51.290;7.348;2023-05-23T00:04:45;98754.41;;;21.39;48.65
76156;BME280;64906;51.290;7.348;2023-05-23T00:07:11;98753.28;;;21.40;48.75
76156;BME280;64906;51.290;7.348;2023-05-23T00:09:36;98742.28;;;21.40;48.83
76156;BME280;64906;51.290;7.348;2023-05-23T00:12:01;98748.63;;;21.40;48.53
76156;BME280;64906;51.290;7.348;2023-05-23T00:14:27;98744.81;;;21.36;48.84
76156;BME280;64906;51.290;7.348;2023-05-23T00:16:58;98743.72;;;21.37;48.73
76156;BME280;64906;51.290;7.348;2023-05-23T00:19:24;98754.72;;;21.37;48.45
76156;BME280;64906;51.290;7.348;2023-05-23T00:21:50;98749.53;;;21.36;48.90
76156;BME280;64906;51.290;7.348;2023-05-23T00:24:18;98750.53;;;21.40;48.74
76156;BME280;64906;51.290;7.348;2023-05-23T00:26:45;98759.38;;;21.37;48.56
76156;BME280;64906;51.290;7.348;2023-05-23T00:29:10;98751.53;;;21.30;48.60
76156;BME280;64906;51.290;7.348;2023-05-23T00:31:43;98762.66;;;21.39;48.87
76156;BME280;64906;51.290;7.348;2023-05-23T00:34:15;98761.59;;;21.34;48.63
76156;BME280;64906;51.290;7.348;2023-05-23T00:36:43;98772.59;;;21.34;48.60
76156;BME280;64906;51.290;7.348;2023-05-23T00:39:11;98769.03;;;21.34;48.87
76156;BME280;64906;51.290;7.348;2023-05-23T00:41:45;98767.09;;;21.34;48.65
76156;BME280;64906;51.290;7.348;2023-05-23T00:44:10;98771.19;;;21.37;48.45
76156;BME280;64906;51.290;7.348;2023-05-23T00:46:35;98770.66;;;21.35;48.83
76156;BME280;64906;51.290;7.348;2023-05-23T00:49:01;98773.19;;;21.31;48.56
76156;BME280;64906;51.290;7.348;2023-05-23T00:51:26;98786.13;;;21.31;48.69
76156;BME280;64906;51.290;7.348;2023-05-23T00:53:52;98796.81;;;21.33;48.65
76156;BME280;64906;51.290;7.348;2023-05-23T00:56:18;98783.38;;;21.31;48.55
76156;BME280;64906;51.290;7.348;2023-05-23T00:58:43;98788.88;;;21.31;48.95
76156;BME280;64906;51.290;7.348;2023-05-23T01:01:09;98786.00;;;21.36;48.54
76156;BME280;64906;51.290;7.348;2023-05-23T01:03:34;98803.38;;;21.31;48.87
76156;BME280;64906;51.290;7.348;2023-05-23T01:06:00;98804.50;;;21.30;48.70
76156;BME280;64906;51.290;7.348;2023-05-23T01:08:28;98808.16;;;21.26;49.01
76156;BME280;64906;51.290;7.348;2023-05-23T01:10:54;98809.78;;;21.27;48.79
76156;BME280;64906;51.290;7.348;2023-05-23T01:13:46;98799.84;;;21.31;48.96
76156;BME280;64906;51.290;7.348;2023-05-23T01:16:27;98805.13;;;21.27;48.73
76156;BME280;64906;51.290;7.348;2023-05-23T01:18:58;98801.25;;;21.28;48.73
76156;BME280;64906;51.290;7.348;2023-05-23T01:21:26;98795.53;;;21.25;48.76
76156;BME280;64906;51.290;7.348;2023-05-23T01:29:34;98791.09;;;21.29;48.81
76156;BME280;64906;51.290;7.348;2023-05-23T01:32:04;98791.69;;;21.26;48.97
76156;BME280;64906;51.290;7.348;2023-05-23T01:34:32;98794.13;;;21.27;48.54
76156;BME280;64906;51.290;7.348;2023-05-23T01:36:59;98794.44;;;21.26;48.70
76156;BME280;64906;51.290;7.348;2023-05-23T01:39:24;98792.72;;;21.30;48.81
76156;BME280;64906;51.290;7.348;2023-05-23T01:41:50;98791.16;;;21.24;48.95
76156;BME280;64906;51.290;7.348;2023-05-23T01:44:16;98793.06;;;21.23;48.68
76156;BME280;64906;51.290;7.348;2023-05-23T01:46:42;98786.56;;;21.19;48.89
76156;BME280;64906;51.290;7.348;2023-05-23T01:49:11;98795.00;;;21.23;48.49
76156;BME280;64906;51.290;7.348;2023-05-23T01:51:38;98792.25;;;21.23;49.01
76156;BME280;64906;51.290;7.348;2023-05-23T01:54:03;98783.53;;;21.21;48.92
76156;BME280;64906;51.290;7.348;2023-05-23T01:56:29;98793.38;;;21.22;48.68
76156;BME280;64906;51.290;7.348;2023-05-23T01:58:54;98787.59;;;21.23;48.98
76156;BME280;64906;51.290;7.348;2023-05-23T02:01:20;98789.50;;;21.23;48.74
76156;BME280;64906;51.290;7.348;2023-05-23T02:03:45;98785.66;;;21.24;48.82
76156;BME280;64906;51.290;7.348;2023-05-23T02:06:11;98795.81;;;21.23;48.79
76156;BME280;64906;51.290;7.348;2023-05-23T02:08:36;98792.06;;;21.19;48.96
76156;BME280;64906;51.290;7.348;2023-05-23T02:11:02;98795.91;;;21.18;48.87
76156;BME280;64906;51.290;7.348;2023-05-23T02:13:27;98793.69;;;21.20;48.95
76156;BME280;64906;51.290;7.348;2023-05-23T02:15:52;98795.31;;;21.21;48.57
76156;BME280;64906;51.290;7.348;2023-05-23T02:18:19;98791.53;;;21.17;48.54
76156;BME280;64906;51.290;7.348;2023-05-23T02:20:44;98797.25;;;21.21;48.84
76156;BME280;64906;51.290;7.348;2023-05-23T02:23:10;98793.38;;;21.22;48.47
76156;BME280;64906;51.290;7.348;2023-05-23T02:25:35;98802.22;;;21.19;48.59
76156;BME280;64906;51.290;7.348;2023-05-23T02:28:00;98792.31;;;21.18;48.62
76156;BME280;64906;51.290;7.348;2023-05-23T02:30:25;98801.38;;;21.18;48.78
76156;BME280;64906;51.290;7.348;2023-05-23T02:32:51;98806.06;;;21.18;48.96
76156;BME280;64906;51.290;7.348;2023-05-23T02:35:17;98804.44;;;21.17;48.99
76156;BME280;64906;51.290;7.348;2023-05-23T02:37:43;98801.16;;;21.15;48.93
76156;BME280;64906;51.290;7.348;2023-05-23T02:40:08;98810.53;;;21.14;48.65
76156;BME280;64906;51.290;7.348;2023-05-23T02:42:34;98806.06;;;21.18;48.68
76156;BME280;64906;51.290;7.348;2023-05-23T02:45:00;98807.19;;;21.17;49.01
76156;BME280;64906;51.290;7.348;2023-05-23T02:47:25;98805.84;;;21.14;48.97
76156;BME280;64906;51.290;7.348;2023-05-23T02:49:50;98807.53;;;21.10;49.03
76156;BME280;64906;51.290;7.348;2023-05-23T02:52:16;98802.06;;;21.10;48.97
76156;BME280;64906;51.290;7.348;2023-05-23T02:54:41;98804.72;;;21.15;48.92
76156;BME280;64906;51.290;7.348;2023-05-23T02:57:07;98802.81;;;21.16;48.85
76156;BME280;64906;51.290;7.348;2023-05-23T02:59:32;98804.44;;;21.17;48.68
76156;BME280;64906;51.290;7.348;2023-05-23T03:01:58;98806.94;;;21.13;49.04
76156;BME280;64906;51.290;7.348;2023-05-23T03:04:23;98795.75;;;21.10;48.81
76156;BME280;64906;51.290;7.348;2023-05-23T03:06:48;98800.13;;;21.11;48.93
76156;BME280;64906;51.290;7.348;2023-05-23T03:09:14;98800.72;;;21.08;48.73
76156;BME280;64906;51.290;7.348;2023-05-23T03:11:41;98807.53;;;21.10;48.92
76156;BME280;64906;51.290;7.348;2023-05-23T03:14:06;98801.22;;;21.10;48.98
76156;BME280;64906;51.290;7.348;2023-05-23T03:16:32;98804.81;;;21.10;48.60
76156;BME280;64906;51.290;7.348;2023-05-23T03:18:57;98799.31;;;21.10;48.59
76156;BME280;64906;51.290;7.348;2023-05-23T03:21:22;98808.38;;;21.11;48.59
76156;BME280;64906;51.290;7.348;2023-05-23T03:23:48;98808.31;;;21.16;48.69
76156;BME280;64906;51.290;7.348;2023-05-23T03:26:14;98813.78;;;21.16;48.60
76156;BME280;64906;51.290;7.348;2023-05-23T03:28:39;98810.00;;;21.12;48.84
76156;BME280;64906;51.290;7.348;2023-05-23T03:31:05;98804.50;;;21.12;48.88
76156;BME280;64906;51.290;7.348;2023-05-23T03:33:30;98810.28;;;21.10;48.96
76156;BME280;64906;51.290;7.348;2023-05-23T03:35:55;98821.28;;;21.10;48.67
76156;BME280;64906;51.290;7.348;2023-05-23T03:38:21;98813.34;;;21.09;48.68
76156;BME280;64906;51.290;7.348;2023-05-23T03:40:47;98821.03;;;21.07;48.81
76156;BME280;64906;51.290;7.348;2023-05-23T03:43:12;98810.06;;;21.07;48.75
76156;BME280;64906;51.290;7.348;2023-05-23T03:45:37;98825.13;;;21.09;49.04
76156;BME280;64906;51.290;7.348;2023-05-23T03:48:02;98819.94;;;21.08;48.53
76156;BME280;64906;51.290;7.348;2023-05-23T03:50:28;98820.50;;;21.05;48.91
76156;BME280;64906;51.290;7.348;2023-05-23T03:52:53;98821.63;;;21.04;49.11
76156;BME280;64906;51.290;7.348;2023-05-23T03:55:20;98833.16;;;21.06;49.16
76156;BME280;64906;51.290;7.348;2023-05-23T03:57:49;98824.09;;;21.05;48.60
76156;BME280;64906;51.290;7.348;2023-05-23T04:00:14;98832.63;;;21.04;48.71
76156;BME280;64906;51.290;7.348;2023-05-23T04:02:40;98840.25;;;21.07;48.66
76156;BME280;64906;51.290;7.348;2023-05-23T04:05:05;98840.56;;;21.05;48.97
76156;BME280;64906;51.290;7.348;2023-05-23T04:07:32;98839.72;;;21.05;48.76
76156;BME280;64906;51.290;7.348;2023-05-23T04:09:59;98845.75;;;21.07;48.73
76156;BME280;64906;51.290;7.348;2023-05-23T04:12:24;98843.28;;;21.05;48.93
76156;BME280;64906;51.290;7.348;2023-05-23T04:14:50;98848.50;;;21.07;48.90
76156;BME280;64906;51.290;7.348;2023-05-23T04:17:15;98846.88;;;21.06;48.69
76156;BME280;64906;51.290;7.348;2023-05-23T04:19:40;98853.44;;;21.05;48.63
76156;BME280;64906;51.290;7.348;2023-05-23T04:22:06;98848.78;;;21.05;48.62
76156;BME280;64906;51.290;7.348;2023-05-23T04:24:31;98855.41;;;21.04;48.84
76156;BME280;64906;51.290;7.348;2023-05-23T04:26:56;98852.34;;;21.06;48.84
76156;BME280;64906;51.290;7.348;2023-05-23T04:29:23;98858.75;;;21.01;48.53
76156;BME280;64906;51.290;7.348;2023-05-23T04:31:50;98855.69;;;21.03;49.08
76156;BME280;64906;51.290;7.348;2023-05-23T04:34:15;98867.78;;;21.02;48.90
76156;BME280;64906;51.290;7.348;2023-05-23T04:36:41;98867.19;;;21.05;48.59
76156;BME280;64906;51.290;7.348;2023-05-23T04:39:08;98862.81;;;21.04;48.63
76156;BME280;64906;51.290;7.348;2023-05-23T04:41:34;98861.19;;;21.03;48.70
76156;BME280;64906;51.290;7.348;2023-05-23T04:44:01;98859.53;;;21.02;48.96
76156;BME280;64906;51.290;7.348;2023-05-23T04:46:26;98860.34;;;21.02;48.97
76156;BME280;64906;51.290;7.348;2023-05-23T04:48:52;98859.03;;;21.00;48.92
76156;BME280;64906;51.290;7.348;2023-05-23T04:51:18;98864.53;;;21.00;48.85
76156;BME280;64906;51.290;7.348;2023-05-23T04:53:46;98866.16;;;21.01;48.71
76156;BME280;64906;51.290;7.348;2023-05-23T04:56:11;98867.28;;;21.00;48.68
76156;BME280;64906;51.290;7.348;2023-05-23T04:58:36;98870.22;;;21.03;48.93
76156;BME280;64906;51.290;7.348;2023-05-23T05:01:02;98872.91;;;21.08;49.47
76156;BME280;64906;51.290;7.348;2023-05-23T05:03:27;98867.94;;;21.10;49.97
76156;BME280;64906;51.290;7.348;2023-05-23T05:05:52;98884.94;;;21.12;49.75
76156;BME280;64906;51.290;7.348;2023-05-23T05:08:18;98870.16;;;21.08;50.03
76156;BME280;64906;51.290;7.348;2023-05-23T05:10:46;98869.66;;;21.06;50.15
76156;BME280;64906;51.290;7.348;2023-05-23T05:13:11;98882.56;;;21.06;50.13
76156;BME280;64906;51.290;7.348;2023-05-23T05:15:37;98877.59;;;21.08;50.17
76156;BME280;64906;51.290;7.348;2023-05-23T05:18:02;98882.50;;;21.11;50.27
76156;BME280;64906;51.290;7.348;2023-05-23T05:20:27;98879.44;;;21.12;49.97
76156;BME280;64906;51.290;7.348;2023-05-23T05:22:57;98881.38;;;21.12;50.14
76156;BME280;64906;51.290;7.348;2023-05-23T05:25:22;98881.06;;;21.13;49.99
76156;BME280;64906;51.290;7.348;2023-05-23T05:27:48;98883.88;;;21.08;50.32
76156;BME280;64906;51.290;7.348;2023-05-23T05:30:13;98894.00;;;21.13;49.89
76156;BME280;64906;51.290;7.348;2023-05-23T05:32:39;98883.59;;;21.10;50.20
76156;BME280;64906;51.290;7.348;2023-05-23T05:35:06;98891.25;;;21.13;50.13
76156;BME280;64906;51.290;7.348;2023-05-23T05:37:32;98901.94;;;21.14;50.05
76156;BME280;64906;51.290;7.348;2023-05-23T05:39:58;98885.75;;;21.13;50.27
76156;BME280;64906;51.290;7.348;2023-05-23T05:42:27;98892.06;;;21.13;50.28
76156;BME280;64906;51.290;7.348;2023-05-23T05:44:52;98895.03;;;21.17;50.02
76156;BME280;64906;51.290;7.348;2023-05-23T05:47:17;98904.44;;;21.11;50.41
76156;BME280;64906;51.290;7.348;2023-05-23T05:49:43;98894.78;;;21.13;50.16
76156;BME280;64906;51.290;7.348;2023-05-23T05:52:08;98903.31;;;21.12;50.10
76156;BME280;64906;51.290;7.348;2023-05-23T05:54:33;98905.53;;;21.10;50.36
76156;BME280;64906;51.290;7.348;2023-05-23T05:57:00;98909.34;;;21.14;49.98
76156;BME280;64906;51.290;7.348;2023-05-23T05:59:25;98909.13;;;21.10;50.13
76156;BME280;64906;51.290;7.348;2023-05-23T06:01:51;98920.09;;;21.10;50.58
76156;BME280;64906;51.290;7.348;2023-05-23T06:04:16;98917.88;;;21.12;50.25
76156;BME280;64906;51.290;7.348;2023-05-23T06:06:42;98920.09;;;21.10;50.22
76156;BME280;64906;51.290;7.348;2023-05-23T06:09:07;98915.66;;;21.14;50.79
76156;BME280;64906;51.290;7.348;2023-05-23T06:11:33;98924.19;;;21.13;50.38
76156;BME280;64906;51.290;7.348;2023-05-23T06:13:58;98917.88;;;21.12;50.66
76156;BME280;64906;51.290;7.348;2023-05-23T06:16:24;98923.91;;;21.14;50.36
76156;BME280;64906;51.290;7.348;2023-05-23T06:18:49;98925.81;;;21.14;50.70
76156;BME280;64906;51.290;7.348;2023-05-23T06:21:14;98922.53;;;21.12;50.77
76156;BME280;64906;51.290;7.348;2023-05-23T06:23:40;98916.53;;;21.10;50.70
76156;BME280;64906;51.290;7.348;2023-05-23T06:26:05;98910.47;;;21.13;50.46
76156;BME280;64906;51.290;7.348;2023-05-23T06:28:35;98916.53;;;21.10;50.67
76156;BME280;64906;51.290;7.348;2023-05-23T06:31:00;98919.25;;;21.10;50.66
76156;BME280;64906;51.290;7.348;2023-05-23T06:33:25;98919.19;;;21.15;50.76
76156;BME280;64906;51.290;7.348;2023-05-23T06:35:50;98928.25;;;21.15;50.59
76156;BME280;64906;51.290;7.348;2023-05-23T06:38:16;98917.88;;;21.12;50.59
76156;BME280;64906;51.290;7.348;2023-05-23T06:40:41;98933.53;;;21.12;50.81
76156;BME280;64906;51.290;7.348;2023-05-23T06:43:06;98924.25;;;21.08;50.71
76156;BME280;64906;51.290;7.348;2023-05-23T06:45:32;98928.03;;;21.12;50.85
76156;BME280;64906;51.290;7.348;2023-05-23T06:47:59;98933.53;;;21.12;50.59
76156;BME280;64906;51.290;7.348;2023-05-23T06:50:25;98932.69;;;21.11;50.71
76156;BME280;64906;51.290;7.348;2023-05-23T06:52:50;98933.53;;;21.12;50.85
76156;BME280;64906;51.290;7.348;2023-05-23T06:55:15;98943.69;;;21.11;50.62
76156;BME280;64906;51.290;7.348;2023-05-23T06:57:43;98946.41;;;21.11;50.57
76156;BME280;64906;51.290;7.348;2023-05-23T07:00:09;98952.75;;;21.12;50.58
76156;BME280;64906;51.290;7.348;2023-05-23T07:02:35;98948.38;;;21.11;50.48
76156;BME280;64906;51.290;7.348;2023-05-23T07:05:00;98949.16;;;21.11;50.59
76156;BME280;64906;51.290;7.348;2023-05-23T07:07:26;98954.44;;;21.08;50.95
76156;BME280;64906;51.290;7.348;2023-05-23T07:09:51;98967.34;;;21.07;50.52
76156;BME280;64906;51.290;7.348;2023-05-23T07:12:17;98953.03;;;21.10;50.76
76156;BME280;64906;51.290;7.348;2023-05-23T07:14:44;98974.75;;;21.07;50.63
76156;BME280;64906;51.290;7.348;2023-05-23T07:17:09;98961.03;;;21.07;50.68
76156;BME280;64906;51.290;7.348;2023-05-23T07:19:34;98974.50;;;21.03;50.89
76156;BME280;64906;51.290;7.348;2023-05-23T07:22:00;98974.22;;;21.05;51.05
76156;BME280;64906;51.290;7.348;2023-05-23T07:24:25;98980.84;;;21.04;51.01
76156;BME280;64906;51.290;7.348;2023-05-23T07:26:50;98983.53;;;21.09;50.87
76156;BME280;64906;51.290;7.348;2023-05-23T07:29:16;98995.84;;;21.11;51.04
76156;BME280;64906;51.290;7.348;2023-05-23T07:31:41;98989.06;;;21.04;51.06
76156;BME280;64906;51.290;7.348;2023-05-23T07:34:06;98997.84;;;21.06;51.16
76156;BME280;64906;51.290;7.348;2023-05-23T07:36:31;98995.91;;;21.06;51.45
76156;BME280;64906;51.290;7.348;2023-05-23T07:38:59;98994.50;;;21.09;51.03
76156;BME280;64906;51.290;7.348;2023-05-23T07:41:25;98992.59;;;21.09;51.14
76156;BME280;64906;51.290;7.348;2023-05-23T07:43:50;98995.28;;;21.14;51.26
76156;BME280;64906;51.290;7.348;2023-05-23T07:46:16;99010.91;;;21.14;51.27
76156;BME280;64906;51.290;7.348;2023-05-23T07:48:41;99011.75;;;21.14;51.03
76156;BME280;64906;51.290;7.348;2023-05-23T07:51:07;99015.94;;;21.07;51.10
76156;BME280;64906;51.290;7.348;2023-05-23T07:53:32;99015.88;;;21.12;51.05
76156;BME280;64906;51.290;7.348;2023-05-23T07:55:57;99015.06;;;21.11;50.90
76156;BME280;64906;51.290;7.348;2023-05-23T07:58:23;99019.44;;;21.12;50.85
76156;BME280;64906;51.290;7.348;2023-05-23T08:00:49;99023.06;;;21.08;51.07
76156;BME280;64906;51.290;7.348;2023-05-23T08:03:14;99017.59;;;21.08;51.31
76156;BME280;64906;51.290;7.348;2023-05-23T08:05:41;99014.84;;;21.08;50.98
76156;BME280;64906;51.290;7.348;2023-05-23T08:08:06;99019.75;;;21.11;51.03
76156;BME280;64906;51.290;7.348;2023-05-23T08:10:31;99022.19;;;21.12;51.15
76156;BME280;64906;51.290;7.348;2023-05-23T08:12:57;99034.25;;;21.11;51.31
76156;BME280;64906;51.290;7.348;2023-05-23T08:15:24;99028.50;;;21.13;51.32
76156;BME280;64906;51.290;7.348;2023-05-23T08:17:50;99020.84;;;21.10;51.23
76156;BME280;64906;51.290;7.348;2023-05-23T08:20:15;99027.97;;;21.11;51.01
76156;BME280;64906;51.290;7.348;2023-05-23T08:22:41;99040.00;;;21.15;51.20
76156;BME280;64906;51.290;7.348;2023-05-23T08:25:06;99030.13;;;21.14;51.13
76156;BME280;64906;51.290;7.348;2023-05-23T08:27:32;99035.38;;;21.10;50.77
76156;BME280;64906;51.290;7.348;2023-05-23T08:29:59;99037.53;;;21.13;51.12
76156;BME280;64906;51.290;7.348;2023-05-23T08:32:25;99045.78;;;21.13;51.10
76156;BME280;64906;51.290;7.348;2023-05-23T08:34:50;99042.00;;;21.09;50.91
76156;BME280;64906;51.290;7.348;2023-05-23T08:37:15;99031.81;;;21.10;51.12
76156;BME280;64906;51.290;7.348;2023-05-23T08:39:40;99043.31;;;21.12;51.10
76156;BME280;64906;51.290;7.348;2023-05-23T08:42:06;99035.69;;;21.09;51.26
76156;BME280;64906;51.290;7.348;2023-05-23T08:44:31;99039.84;;;21.06;51.33
76156;BME280;64906;51.290;7.348;2023-05-23T08:47:02;99051.56;;;21.12;51.22
76156;BME280;64906;51.290;7.348;2023-05-23T08:49:29;99049.66;;;21.12;51.17
76156;BME280;64906;51.290;7.348;2023-05-23T08:51:58;99060.63;;;21.12;51.52
76156;BME280;64906;51.290;7.348;2023-05-23T08:54:25;99054.78;;;21.19;51.30
76156;BME280;64906;51.290;7.348;2023-05-23T08:56:51;99050.94;;;21.20;51.51
76156;BME280;64906;51.290;7.348;2023-05-23T08:59:17;99057.00;;;21.17;51.36
76156;BME280;64906;51.290;7.348;2023-05-23T09:01:44;99069.34;;;21.19;51.01
76156;BME280;64906;51.290;7.348;2023-05-23T09:04:10;99060.28;;;21.19;51.02
76156;BME280;64906;51.290;7.348;2023-05-23T09:06:36;99059.75;;;21.17;51.03
76156;BME280;64906;51.290;7.348;2023-05-23T09:09:01;99063.09;;;21.14;51.07
76156;BME280;64906;51.290;7.348;2023-05-23T09:11:28;99060.63;;;21.12;51.05
76156;BME280;64906;51.290;7.348;2023-05-23T09:13:53;99065.28;;;21.12;51.14
76156;BME280;64906;51.290;7.348;2023-05-23T09:16:20;99064.19;;;21.13;51.03
76156;BME280;64906;51.290;7.348;2023-05-23T09:18:45;99065.59;;;21.10;51.13
76156;BME280;64906;51.290;7.348;2023-05-23T09:21:12;99069.41;;;21.14;51.00
76156;BME280;64906;51.290;7.348;2023-05-23T09:23:40;99079.31;;;21.10;51.11
76156;BME280;64906;51.290;7.348;2023-05-23T09:26:10;99085.38;;;21.07;51.19
76156;BME280;64906;51.290;7.348;2023-05-23T09:28:38;99083.97;;;21.10;51.37
76156;BME280;64906;51.290;7.348;2023-05-23T09:31:04;99090.59;;;21.09;51.40
76156;BME280;64906;51.290;7.348;2023-05-23T09:36:07;99088.91;;;21.13;51.21
76156;BME280;64906;51.290;7.348;2023-05-23T09:38:40;99096.03;;;21.14;51.11
76156;BME280;64906;51.290;7.348;2023-05-23T09:41:06;99095.44;;;21.17;50.70
76156;BME280;64906;51.290;7.348;2023-05-23T09:43:32;99099.88;;;21.13;50.59
76156;BME280;64906;51.290;7.348;2023-05-23T09:46:09;99104.84;;;21.11;50.68
76156;BME280;64906;51.290;7.348;2023-05-23T09:48:35;99098.81;;;21.09;50.83
76156;BME280;64906;51.290;7.348;2023-05-23T09:51:04;99099.97;;;21.03;50.89
76156;BME280;64906;51.290;7.348;2023-05-23T09:53:31;99104.88;;;21.06;50.79
76156;BME280;64906;51.290;7.348;2023-05-23T09:55:58;99098.56;;;21.05;50.90
76156;BME280;64906;51.290;7.348;2023-05-23T09:58:26;99102.16;;;21.06;50.79
76156;BME280;64906;51.290;7.348;2023-05-23T10:00:52;99111.47;;;21.05;50.70
76156;BME280;64906;51.290;7.348;2023-05-23T10:03:30;99109.31;;;21.02;50.54
76156;BME280;64906;51.290;7.348;2023-05-23T10:06:07;99102.44;;;21.04;50.50
76156;BME280;64906;51.290;7.348;2023-05-23T10:08:39;99109.25;;;21.07;50.58
76156;BME280;64906;51.290;7.348;2023-05-23T10:14:02;99100.56;;;20.95;50.87
76156;BME280;64906;51.290;7.348;2023-05-23T10:19:24;99114.47;;;21.08;50.26
76156;BME280;64906;51.290;7.348;2023-05-23T10:21:56;99118.56;;;21.11;50.10
76156;BME280;64906;51.290;7.348;2023-05-23T10:24:24;99105.97;;;21.05;50.03
76156;BME280;64906;51.290;7.348;2023-05-23T10:26:50;99118.84;;;21.09;50.01
76156;BME280;64906;51.290;7.348;2023-05-23T10:29:16;99128.22;;;21.03;50.49
76156;BME280;64906;51.290;7.348;2023-05-23T10:31:41;99119.94;;;21.08;50.15
76156;BME280;64906;51.290;7.348;2023-05-23T10:34:14;99129.56;;;21.11;49.87
76156;BME280;64906;51.290;7.348;2023-05-23T10:36:54;99140.53;;;21.11;49.95
76156;BME280;64906;51.290;7.348;2023-05-23T10:39:31;99140.25;;;21.12;50.08
76156;BME280;64906;51.290;7.348;2023-05-23T10:42:02;99135.28;;;21.14;49.79
76156;BME280;64906;51.290;7.348;2023-05-23T10:44:29;99143.53;;;21.14;50.03
76156;BME280;64906;51.290;7.348;2023-05-23T10:46:57;99146.59;;;21.08;50.01
76156;BME280;64906;51.290;7.348;2023-05-23T10:49:45;99143.03;;;21.07;49.92
76156;BME280;64906;51.290;7.348;2023-05-23T10:52:15;99147.94;;;21.10;49.86
76156;BME280;64906;51.290;7.348;2023-05-23T10:54:47;99153.47;;;21.05;49.83
76156;BME280;64906;51.290;7.348;2023-05-23T10:57:17;99155.72;;;20.98;49.87
76156;BME280;64906;51.290;7.348;2023-05-23T10:59:44;99153.81;;;20.99;50.16
76156;BME280;64906;51.290;7.348;2023-05-23T11:02:17;99160.94;;;21.00;50.16
76156;BME280;64906;51.290;7.348;2023-05-23T11:04:43;99160.94;;;20.95;50.08
76156;BME280;64906;51.290;7.348;2023-05-23T11:07:28;99165.66;;;20.89;50.46
76156;BME280;64906;51.290;7.348;2023-05-23T11:10:10;99167.28;;;20.90;50.03
76156;BME280;64906;51.290;7.348;2023-05-23T11:12:40;99176.91;;;20.88;50.29
76156;BME280;64906;51.290;7.348;2023-05-23T11:15:19;99193.09;;;20.89;50.24
76156;BME280;64906;51.290;7.348;2023-05-23T11:17:57;99183.22;;;20.88;50.29
76156;BME280;64906;51.290;7.348;2023-05-23T11:20:23;99185.16;;;20.88;50.37
76156;BME280;64906;51.290;7.348;2023-05-23T11:23:02;99187.31;;;20.91;50.31
76156;BME280;64906;51.290;7.348;2023-05-23T11:25:44;99179.63;;;20.93;50.16
76156;BME280;64906;51.290;7.348;2023-05-23T11:28:12;99190.06;;;20.91;50.07
76156;BME280;64906;51.290;7.348;2023-05-23T11:30:38;99188.94;;;20.92;49.89
76156;BME280;64906;51.290;7.348;2023-05-23T11:33:09;99185.94;;;20.93;49.94
76156;BME280;64906;51.290;7.348;2023-05-23T11:35:39;99181.25;;;20.99;50.16
76156;BME280;64906;51.290;7.348;2023-05-23T11:38:04;99180.09;;;21.05;49.61
76156;BME280;64906;51.290;7.348;2023-05-23T11:40:36;99184.75;;;21.09;49.72
76156;BME280;64906;51.290;7.348;2023-05-23T11:43:04;99186.03;;;21.17;49.12
76156;BME280;64906;51.290;7.348;2023-05-23T11:45:31;99189.91;;;21.16;49.19
76156;BME280;64906;51.290;7.348;2023-05-23T11:47:56;99184.13;;;21.17;49.30
76156;BME280;64906;51.290;7.348;2023-05-23T11:50:22;99187.16;;;21.16;49.03
76156;BME280;64906;51.290;7.348;2023-05-23T11:52:51;99182.25;;;21.13;49.54
76156;BME280;64906;51.290;7.348;2023-05-23T11:55:19;99183.88;;;21.14;49.49
76156;BME280;64906;51.290;7.348;2023-05-23T11:57:45;99181.72;;;21.11;49.58
76156;BME280;64906;51.290;7.348;2023-05-23T12:00:11;99194.03;;;21.13;49.55
76156;BME280;64906;51.290;7.348;2023-05-23T12:02:41;99194.28;;;21.17;49.33
76156;BME280;64906;51.290;7.348;2023-05-23T12:05:08;99195.44;;;21.11;49.42
76156;BME280;64906;51.290;7.348;2023-05-23T12:07:34;99191.03;;;21.10;49.83
76156;BME280;64906;51.290;7.348;2023-05-23T12:10:02;99196.00;;;21.08;49.67
76156;BME280;64906;51.290;7.348;2023-05-23T12:12:28;99202.00;;;21.10;49.94
76156;BME280;64906;51.290;7.348;2023-05-23T12:14:56;99200.09;;;21.10;49.90
76156;BME280;64906;51.290;7.348;2023-05-23T12:17:22;99207.22;;;21.11;49.73
76156;BME280;64906;51.290;7.348;2023-05-23T12:19:48;99203.41;;;21.07;49.71
76156;BME280;64906;51.290;7.348;2023-05-23T12:22:13;99207.53;;;21.05;49.81
76156;BME280;64906;51.290;7.348;2023-05-23T12:24:44;99199.84;;;21.07;49.97
76156;BME280;64906;51.290;7.348;2023-05-23T12:27:11;99211.66;;;21.07;49.82
76156;BME280;64906;51.290;7.348;2023-05-23T12:29:37;99208.88;;;21.12;49.79
76156;BME280;64906;51.290;7.348;2023-05-23T12:32:04;99203.66;;;21.11;49.86
76156;BME280;64906;51.290;7.348;2023-05-23T12:34:30;99207.47;;;21.15;49.53
76156;BME280;64906;51.290;7.348;2023-05-23T12:36:57;99202.81;;;21.15;49.90
76156;BME280;64906;51.290;7.348;2023-05-23T12:39:24;99207.44;;;21.20;49.30
76156;BME280;64906;51.290;7.348;2023-05-23T12:41:51;99197.03;;;21.17;49.25
76156;BME280;64906;51.290;7.348;2023-05-23T12:44:16;99202.19;;;21.23;49.50
76156;BME280;64906;51.290;7.348;2023-05-23T12:46:42;99205.75;;;21.24;49.49
76156;BME280;64906;51.290;7.348;2023-05-23T12:49:07;99203.25;;;21.27;49.17
76156;BME280;64906;51.290;7.348;2023-05-23T12:51:33;99206.25;;;21.31;49.04
76156;BME280;64906;51.290;7.348;2023-05-23T12:53:58;99205.09;;;21.37;49.28
76156;BME280;64906;51.290;7.348;2023-05-23T12:56:24;99207.56;;;21.39;49.02
76156;BME280;64906;51.290;7.348;2023-05-23T12:58:50;99206.16;;;21.41;48.85
76156;BME280;64906;51.290;7.348;2023-05-23T13:01:18;99199.91;;;21.36;49.30
76156;BME280;64906;51.290;7.348;2023-05-23T13:03:44;99199.59;;;21.37;49.46
76156;BME280;64906;51.290;7.348;2023-05-23T13:06:09;99198.78;;;21.37;49.26
76156;BME280;64906;51.290;7.348;2023-05-23T13:08:36;99201.78;;;21.40;48.82
76156;BME280;64906;51.290;7.348;2023-05-23T13:11:01;99197.63;;;21.43;49.17
76156;BME280;64906;51.290;7.348;2023-05-23T13:13:27;99192.38;;;21.46;49.04